CheckWX is a tool to help pilots better visualize weather data.  It is not intended as a substitute for an official pre-flight weather briefing.

11:08:58 UTC

KLAR METAR
Laramie Regional Airport
Laramie, Wyoming, USA
Current

16 mins ago

KLAR 141053Z AUTO 30006KT 10SM CLR 03/M14 A3000 RMK AO2 SLP095 T00281139
Observed
Oct-14 @ 10:53 UTC
Wind
  • 300° at 6 KTS
Visibility
10 SM
Flight Rules
VFR
Cloud Levels
  • Clear skies
Temperature
C / 37°F
Dewpoint
-14°C / 7°F
Humidity
28%
Altimeter
30" Hg
Pressure
1015.92 hPa
Previous

1 hour ago

KLAR 140953Z AUTO 23012KT 10SM CLR 03/M13 A3000 RMK AO2 SLP087 T00331133
Observed
Oct-14 @ 09:53 UTC
Wind
  • 230° at 12 KTS
Visibility
10 SM
Flight Rules
VFR
Cloud Levels
  • Clear skies
Temperature
C / 37°F
Dewpoint
-13°C / 9°F
Humidity
30%
Altimeter
30" Hg
Pressure
1015.92 hPa
Previous

2 hours ago

KLAR 140853Z AUTO 23011KT 10SM CLR 06/M13 A3000 RMK AO2 SLP081 T00561133 56008
Observed
Oct-14 @ 08:53 UTC
Wind
  • 230° at 11 KTS
Visibility
10 SM
Flight Rules
VFR
Cloud Levels
  • Clear skies
Temperature
C / 43°F
Dewpoint
-13°C / 9°F
Humidity
24%
Altimeter
30" Hg
Pressure
1015.92 hPa